Stations météo

réclame
Mon MeteoGroup
Monte Scuro, Italie (16344): Température de l'air & dewpoint: 17.05.2018 20:00:00 - 23.05.2018 20:00:00 (CEST)Monte Scuro, Italie (16344): Vitesse du vent: 17.05.2018 20:00:00 - 23.05.2018 20:00:00 (CEST)Monte Scuro, Italie (16344): Direction du vent: 17.05.2018 20:00:00 - 23.05.2018 20:00:00 (CEST)Monte Scuro, Italie (16344): visibility: 17.05.2018 20:00:00 - 23.05.2018 20:00:00 (CEST)Monte Scuro, Italie (16344): Ensoleillement: 17.05.2018 20:00:00 - 23.05.2018 20:00:00 (CEST)
Date & Time tt [°C] td [°C] ff [km/h] ff [knt] dd vv [km] sd [min]
23.05.2018 20:00:00 8,2 8,2 18 10 WSW - -
23.05.2018 19:00:00 8,2 8,2 22 12 W - 0
23.05.2018 18:00:00 8,8 8,8 22 12 WSW - 0
23.05.2018 17:00:00 9,0 9,0 24 13 WSW - 0
23.05.2018 16:00:00 9,2 9,2 26 14 W - 0
23.05.2018 15:00:00 9,8 9,8 26 14 W - 0
23.05.2018 14:00:00 10,4 10,4 9 5 SW - 0
23.05.2018 13:00:00 10,8 10,8 16 9 SW - 0
23.05.2018 12:00:00 10,8 10,8 11 6 SW - 0
23.05.2018 11:00:00 11,0 11,0 16 9 SSE - 0
23.05.2018 10:00:00 10,0 10,0 18 10 SW - 0
23.05.2018 09:00:00 10,0 10,0 18 10 WSW - 0
23.05.2018 08:00:00 9,0 9,0 18 10 S 10 0
23.05.2018 07:00:00 10,0 10,0 18 10 SSW - -
23.05.2018 06:00:00 10,0 10,0 22 12 SSE 10 -
23.05.2018 05:00:00 12,0 10,4 18 10 SSE 10 -
23.05.2018 04:00:00 12,0 8,7 18 10 S 10 -
23.05.2018 03:00:00 12,0 8,7 18 10 S 10 -
23.05.2018 02:00:00 12,0 8,7 18 10 S 10 -
23.05.2018 01:00:00 12,0 8,7 8 4 S 10 -
23.05.2018 00:00:00 12,0 8,7 5 3 SSE 10 -
22.05.2018 23:00:00 13,0 9,6 0 0 N 10 -
22.05.2018 22:00:00 13,0 9,6 5 3 SSE 10 -
22.05.2018 21:00:00 13,0 9,6 9 5 S 10 -
22.05.2018 20:00:00 15,0 11,6 0 0 N 10 60
22.05.2018 19:00:00 16,0 5,6 5 3 SSE 10 60
22.05.2018 18:00:00 17,0 6,5 5 3 SSE 10 60
22.05.2018 17:00:00 18,0 7,4 9 5 S 10 60
22.05.2018 16:00:00 17,0 11,5 0 0 N 10 60
22.05.2018 15:00:00 17,0 11,5 0 0 N 10 60
22.05.2018 14:00:00 17,0 11,5 11 6 SW 10 60
22.05.2018 13:00:00 16,0 8,2 8 4 NNE 10 60
22.05.2018 12:00:00 17,0 10,4 15 8 N 10 60
22.05.2018 11:00:00 17,0 10,4 15 8 N 10 60
22.05.2018 10:00:00 16,4 9,8 18 10 NNE 15 36
22.05.2018 09:00:00 16,4 10,0 24 13 NNE 25 60
22.05.2018 08:00:00 16,4 7,9 21 11 NNE 20 60
22.05.2018 07:00:00 15,0 8,0 21 11 NNE 20 42
22.05.2018 06:00:00 12,2 7,5 13 7 WSW 10 -
22.05.2018 05:00:00 12,2 7,1 16 9 WSW 10 -
22.05.2018 04:00:00 12,4 7,3 16 9 SW 10 -
22.05.2018 03:00:00 12,4 7,5 13 7 WSW 10 -
22.05.2018 02:00:00 13,0 8,5 11 6 W 10 -
22.05.2018 01:00:00 13,0 8,3 16 9 WSW 10 -
22.05.2018 00:00:00 13,6 7,6 18 10 WSW 10 -
21.05.2018 23:00:00 14,4 8,6 15 8 WSW 10 -
21.05.2018 22:00:00 14,8 10,6 15 8 WSW 10 -
21.05.2018 21:00:00 14,0 9,8 16 9 WSW 10 -
21.05.2018 20:00:00 15,0 8,0 11 6 WSW 10 -
21.05.2018 19:00:00 15,0 12,1 13 7 SW 10 24
21.05.2018 18:00:00 15,8 13,1 11 6 WSW 10 36
21.05.2018 17:00:00 16,8 11,9 13 7 WSW 10 60
21.05.2018 16:00:00 16,2 13,1 21 11 W 10 48
21.05.2018 15:00:00 15,6 13,3 22 12 W 10 30
21.05.2018 14:00:00 16,8 12,1 11 6 SW 10 54
21.05.2018 13:00:00 16,2 11,2 15 8 W 8 12
21.05.2018 12:00:00 16,0 11,2 18 10 W 8 18
21.05.2018 11:00:00 16,0 11,2 15 8 WSW 8 36
21.05.2018 10:00:00 13,0 10,4 18 10 SSW 8 12
21.05.2018 09:00:00 11,4 9,9 18 10 SSW 6 0
21.05.2018 08:00:00 10,8 9,3 18 10 SSW 5 0
21.05.2018 07:00:00 10,4 9,9 18 10 E 3,5 -
21.05.2018 06:00:00 11,0 8,5 18 10 E 3,5 -
21.05.2018 05:00:00 11,0 7,7 18 10 E 10 -
21.05.2018 04:00:00 11,0 7,7 18 10 E 10 -
21.05.2018 03:00:00 12,0 10,5 15 8 E 10 -
21.05.2018 02:00:00 12,0 6,8 18 10 E 10 -
21.05.2018 01:00:00 11,4 9,9 18 10 E 10 -
21.05.2018 00:00:00 11,4 9,9 18 10 E 10 -
20.05.2018 23:00:00 11,4 9,6 18 10 E 10 -
20.05.2018 22:00:00 11,4 8,9 18 10 E 10 -
20.05.2018 21:00:00 11,4 8,2 15 8 E 10 -
20.05.2018 20:00:00 11,8 7,3 24 13 SW 15 60
20.05.2018 19:00:00 13,4 8,2 8 4 SW 30 60
20.05.2018 18:00:00 9,6 3,6 4 2 SW 25 60
20.05.2018 17:00:00 14,4 5,8 11 6 SSW 20 54
20.05.2018 16:00:00 14,8 6,1 11 6 SW 10 18
20.05.2018 15:00:00 15,4 7,3 11 6 SSW 10 48
20.05.2018 14:00:00 14,8 10,3 4 2 SW 15 54
20.05.2018 13:00:00 14,8 11,8 15 8 SW 15 42
20.05.2018 12:00:00 15,0 11,7 15 8 SSW 15 48
20.05.2018 11:00:00 13,4 8,9 8 4 SSW 25 60
20.05.2018 10:00:00 12,0 7,5 18 10 NNE 20 60
20.05.2018 09:00:00 12,0 6,7 18 10 NNE 20 60
20.05.2018 08:00:00 12,0 5,9 8 4 NNE 20 54
20.05.2018 07:00:00 10,4 6,5 0 0 N 20 -
20.05.2018 06:00:00 10,0 6,2 4 2 ENE 15 -
20.05.2018 05:00:00 9,0 8,1 13 7 ENE 15 -
20.05.2018 04:00:00 9,0 8,2 15 8 ENE 15 -
20.05.2018 03:00:00 9,0 8,2 13 7 E 15 -
20.05.2018 02:00:00 9,0 8,2 15 8 ENE 15 -
20.05.2018 01:00:00 9,0 8,1 18 10 ENE 15 -
20.05.2018 00:00:00 9,0 8,1 18 10 E 15 -
19.05.2018 23:00:00 9,2 6,6 22 12 ENE 15 -
19.05.2018 22:00:00 10,0 6,2 13 7 W 15 -
19.05.2018 21:00:00 10,0 6,2 15 8 WSW 20 -
19.05.2018 20:00:00 10,4 5,4 15 8 NNE 25 54
19.05.2018 19:00:00 12,8 5,2 9 5 NNE 30 60
19.05.2018 18:00:00 13,0 5,7 9 5 NNE 30 60
19.05.2018 17:00:00 13,2 6,8 9 5 NW 25 54
19.05.2018 16:00:00 13,2 7,2 9 5 NW 25 24
19.05.2018 15:00:00 13,2 8,3 11 6 WNW 25 36
19.05.2018 14:00:00 13,2 10,6 15 8 NW 25 36
19.05.2018 13:00:00 12,6 10,5 11 6 WNW 15 42
19.05.2018 12:00:00 12,4 10,3 5 3 WNW 25 54
19.05.2018 11:00:00 12,6 4,3 8 4 NW 30 60
19.05.2018 10:00:00 10,8 1,1 8 4 E 30 60
19.05.2018 09:00:00 9,4 4,2 9 5 E 30 60
19.05.2018 08:00:00 9,0 3,8 8 4 E 30 60
19.05.2018 07:00:00 7,0 5,6 9 5 E 30 -
19.05.2018 06:00:00 7,0 6,2 9 5 E 30 -
19.05.2018 05:00:00 7,0 7,0 11 6 E - -
19.05.2018 04:00:00 7,2 7,2 13 7 E - -
19.05.2018 03:00:00 8,8 8,8 11 6 E 10 -
19.05.2018 02:00:00 9,0 8,7 8 4 E 10 -
19.05.2018 01:00:00 9,0 5,5 0 0 N 10 -
19.05.2018 00:00:00 9,2 5,9 0 0 N 10 -
18.05.2018 23:00:00 9,0 5,8 5 3 E 10 -
18.05.2018 22:00:00 9,0 5,7 5 3 E 10 -
18.05.2018 21:00:00 9,0 5,9 4 2 E 10 -
18.05.2018 20:00:00 9,0 7,6 4 2 E 10 -
18.05.2018 19:00:00 9,0 9,0 4 2 ENE - 0
18.05.2018 18:00:00 9,0 9,0 4 2 E - 0
18.05.2018 17:00:00 9,6 9,6 5 3 E - 0
18.05.2018 16:00:00 9,8 9,8 5 3 E - 0
18.05.2018 15:00:00 10,2 10,2 8 4 E - 0
18.05.2018 14:00:00 10,4 10,4 5 3 E - 0
18.05.2018 13:00:00 10,4 10,4 5 3 E - 0
18.05.2018 12:00:00 10,4 10,4 9 5 WSW - 0
18.05.2018 11:00:00 8,4 8,4 9 5 WSW - 0
18.05.2018 10:00:00 9,0 9,0 8 4 WSW - 0
18.05.2018 09:00:00 9,0 9,0 8 4 WSW - 0
18.05.2018 08:00:00 10,0 10,0 8 4 SSW 10 0
18.05.2018 07:00:00 11,0 9,4 13 7 SW 10 -
18.05.2018 06:00:00 11,0 8,6 15 8 SW 10 -
18.05.2018 05:00:00 10,0 2,6 0 0 N 10 -
18.05.2018 04:00:00 10,0 2,6 0 0 N 10 -
18.05.2018 03:00:00 10,0 2,6 0 0 N 10 -
18.05.2018 02:00:00 10,0 2,6 0 0 N 10 -
18.05.2018 01:00:00 10,0 2,6 0 0 N 10 -
18.05.2018 00:00:00 10,0 2,6 0 0 N 10 -
17.05.2018 23:00:00 10,0 2,6 0 0 N 10 -
17.05.2018 22:00:00 10,0 1,4 0 0 N 10 -
17.05.2018 21:00:00 11,0 9,1 0 0 N 10 -
17.05.2018 20:00:00 11,0 9,1 0 0 N 10 60

tt = Température de l'air
td = dewpoint
ff = Vitesse du vent
dd = Direction du vent
vv = visibility
sd = Ensoleillement

stations d'obs. à proximité